»·PEaware :: AAL576 KPSP-KRNO

AAL576 :: KPSP-KRNO

FLIGHT INFORMATION

Flight Status: Arrived
Operator:
American Airlines
More flights by this operator :: More flights under this callsign
Pilot: Anonymous 8274 (8274)
Aircraft: BOEING 727-100
(B721)
More flights by this aircraft type
Origin: KPSP Palm Springs Intl
United States
Destination: KRNO Reno/Tahoe Intl
United States
More flights between these airports :: More routes between these airports
Route: +CATH1 PSP PMD J6 SNS J126 SAC TARVR1
File this flight plan on PilotEdge
Remarks:
Altitude:
(Current/Filed)
28,000ft
Speed:
(Current/Filed)
460kts
Departed: 09-Aug-18 07:44 PM
Arrived: 09-Aug-18 09:11 PM
Distance/Time
Traveled:
375nm/1:26
Distance/Time
To Go:
Arrived

Flight Plot

Page will automatically refresh every two minutes.

Flight plan parsing failed; only flown route is shown


Map Options




Map Legend


Flown Route
Filed Route
Departure Airport
Arrival Airport
Navaid (VOR, NDB)
Fix

Horizontal Profiles

Position Reports

Time Latitude Longitude Heading Altitude Ground
Speed
09-Aug-18 18:55 33.823735 -116.506158 225 489ft 0kts
09-Aug-18 18:56 33.823735 -116.506158 225 489ft 0kts
09-Aug-18 18:57 33.823735 -116.506158 225 489ft 0kts
09-Aug-18 18:58 33.823735 -116.506158 225 489ft 0kts
09-Aug-18 18:59 33.823735 -116.506158 225 489ft 0kts
09-Aug-18 19:00 33.823735 -116.506158 225 489ft 0kts
09-Aug-18 19:01 33.823735 -116.506158 225 489ft 0kts
09-Aug-18 19:02 33.823735 -116.506158 225 489ft 0kts
09-Aug-18 19:03 33.823735 -116.506158 225 489ft 0kts
09-Aug-18 19:04 33.823735 -116.506158 225 489ft 0kts
09-Aug-18 19:05 33.823735 -116.506158 225 489ft 0kts
09-Aug-18 19:06 33.823735 -116.506158 225 489ft 0kts
09-Aug-18 19:07 33.823735 -116.506158 225 489ft 0kts
09-Aug-18 19:08 33.823735 -116.506158 225 489ft 0kts
09-Aug-18 19:09 33.823735 -116.506158 225 489ft 0kts
09-Aug-18 19:10 33.823735 -116.506158 225 489ft 0kts
09-Aug-18 19:11 33.823735 -116.506158 225 489ft 0kts
09-Aug-18 19:12 33.823735 -116.506158 225 489ft 0kts
09-Aug-18 19:13 33.823735 -116.506158 225 489ft 0kts
09-Aug-18 19:14 33.823735 -116.506158 225 489ft 0kts
09-Aug-18 19:15 33.823735 -116.506158 225 489ft 0kts
09-Aug-18 19:16 33.823735 -116.506158 225 489ft 0kts
09-Aug-18 19:17 33.823735 -116.506158 225 489ft 0kts
09-Aug-18 19:18 33.823735 -116.506158 225 489ft 0kts
09-Aug-18 19:19 33.823735 -116.506158 225 489ft 0kts
09-Aug-18 19:20 33.823735 -116.506158 225 489ft 0kts
09-Aug-18 19:21 33.823735 -116.506158 225 489ft 0kts
09-Aug-18 19:22 33.823735 -116.506158 225 489ft 0kts
09-Aug-18 19:23 33.824114 -116.506134 123 489ft 2kts
09-Aug-18 19:24 33.824161 -116.506269 108 489ft 0kts
09-Aug-18 19:25 33.824161 -116.506269 108 489ft 0kts
09-Aug-18 19:26 33.824161 -116.506269 108 489ft 0kts
09-Aug-18 19:27 33.824161 -116.506269 108 489ft 0kts
09-Aug-18 19:28 33.824161 -116.506269 108 489ft 0kts
09-Aug-18 19:29 33.824161 -116.506269 108 489ft 0kts
09-Aug-18 19:30 33.824161 -116.506269 108 489ft 0kts
09-Aug-18 19:31 33.824161 -116.506269 108 489ft 0kts
09-Aug-18 19:32 33.824161 -116.506269 108 489ft 0kts
09-Aug-18 19:33 33.824161 -116.506269 108 489ft 0kts
09-Aug-18 19:34 33.824161 -116.506269 108 489ft 0kts
09-Aug-18 19:35 33.824161 -116.506269 108 489ft 0kts
09-Aug-18 19:36 33.824140 -116.506062 89 489ft 4kts
09-Aug-18 19:37 33.825308 -116.506685 322 489ft 8kts
09-Aug-18 19:38 33.828103 -116.508295 322 489ft 14kts
09-Aug-18 19:39 33.832466 -116.512243 324 489ft 23kts
09-Aug-18 19:40 33.838283 -116.516926 322 489ft 26kts
09-Aug-18 19:41 33.839798 -116.517948 38 489ft 0kts
09-Aug-18 19:42 33.839798 -116.517948 38 489ft 0kts
09-Aug-18 19:43 33.839798 -116.517948 38 489ft 0kts
09-Aug-18 19:44 33.839942 -116.517811 38 489ft 10kts
09-Aug-18 19:45 33.829707 -116.507727 143 550ft 151kts
09-Aug-18 19:46 33.806109 -116.465342 111 3044ft 180kts
09-Aug-18 19:47 33.792584 -116.392438 66 5185ft 275kts
09-Aug-18 19:48 33.833279 -116.312018 84 9020ft 293kts
09-Aug-18 19:49 33.790450 -116.232175 132 12417ft 306kts
09-Aug-18 19:50 33.707292 -116.229473 222 14701ft 349kts
09-Aug-18 19:51 33.699174 -116.337287 307 17499ft 363kts
09-Aug-18 19:52 33.788756 -116.393093 338 19971ft 376kts
09-Aug-18 19:53 33.888124 -116.436954 343 22178ft 389kts
09-Aug-18 19:54 33.992493 -116.477050 339 24009ft 404kts
09-Aug-18 19:55 34.099376 -116.522589 341 25840ft 413kts
09-Aug-18 19:56 34.209430 -116.565490 343 27410ft 422kts
09-Aug-18 19:57 34.324278 -116.606397 343 28060ft 446kts
09-Aug-18 19:58 34.442244 -116.652520 341 28217ft 474kts
09-Aug-18 19:59 34.548415 -116.715967 312 28014ft 500kts
09-Aug-18 20:00 34.580213 -116.877124 264 27974ft 511kts
09-Aug-18 20:01 34.567027 -117.047990 264 27967ft 511kts
09-Aug-18 20:02 34.556848 -117.218875 274 27964ft 508kts
09-Aug-18 20:03 34.565744 -117.389394 273 28048ft 505kts
09-Aug-18 20:05 34.580148 -117.633572 280 27624ft 482kts
09-Aug-18 20:06 34.617993 -117.871862 276 27996ft 499kts
09-Aug-18 20:07 34.630405 -118.040504 274 28019ft 504kts
09-Aug-18 20:08 34.684703 -118.192760 311 28065ft 505kts
09-Aug-18 20:09 34.780932 -118.303577 317 28076ft 508kts
09-Aug-18 20:10 34.884019 -118.420789 317 28062ft 513kts
09-Aug-18 20:11 34.976198 -118.552002 309 28183ft 511kts
09-Aug-18 20:12 35.049473 -118.693859 293 28185ft 509kts
09-Aug-18 20:13 35.113461 -118.846306 298 28183ft 508kts
09-Aug-18 20:14 35.180457 -118.997187 300 28183ft 508kts
09-Aug-18 20:15 35.252659 -119.145482 302 28019ft 511kts
09-Aug-18 20:16 35.328445 -119.292618 302 27939ft 510kts
09-Aug-18 20:17 35.403784 -119.438725 302 27939ft 507kts
09-Aug-18 20:18 35.475513 -119.585755 298 27939ft 503kts
09-Aug-18 20:19 35.538522 -119.734816 297 27940ft 501kts
09-Aug-18 20:20 35.602476 -119.886191 297 27940ft 500kts
09-Aug-18 20:21 35.670000 -120.035233 299 27940ft 499kts
09-Aug-18 20:22 35.724100 -120.190567 285 27945ft 494kts
09-Aug-18 20:23 35.760777 -120.352788 288 27995ft 493kts
09-Aug-18 20:24 35.807515 -120.510445 291 27995ft 495kts
09-Aug-18 20:25 35.860500 -120.661786 295 27995ft 496kts
09-Aug-18 20:26 35.919847 -120.814231 295 27994ft 499kts
09-Aug-18 20:27 35.973666 -120.971118 290 27994ft 499kts
09-Aug-18 20:28 36.021714 -121.127893 290 27994ft 501kts
09-Aug-18 20:29 36.097537 -121.265374 331 28016ft 499kts
09-Aug-18 20:30 36.214140 -121.331343 336 28022ft 500kts
09-Aug-18 20:31 36.341543 -121.390716 344 28022ft 500kts
09-Aug-18 20:32 36.474968 -121.439093 340 28014ft 501kts
09-Aug-18 20:33 36.586569 -121.540576 325 28025ft 499kts
09-Aug-18 20:34 36.707228 -121.621164 352 28018ft 499kts
09-Aug-18 20:35 36.843076 -121.609335 7 28020ft 500kts
09-Aug-18 20:36 36.978685 -121.585824 358 27991ft 499kts
09-Aug-18 20:37 37.115674 -121.590866 358 27993ft 501kts
09-Aug-18 20:38 37.247978 -121.595873 358 27978ft 504kts
09-Aug-18 20:39 37.384733 -121.600978 358 27967ft 505kts
09-Aug-18 20:40 37.524535 -121.604467 1 27966ft 505kts
09-Aug-18 20:41 37.664448 -121.600364 1 27967ft 506kts
09-Aug-18 20:42 37.804153 -121.596091 1 27940ft 507kts
09-Aug-18 20:43 37.944798 -121.591714 1 27940ft 508kts
09-Aug-18 20:44 38.085157 -121.582584 9 27916ft 506kts
09-Aug-18 20:45 38.217833 -121.554653 9 27913ft 507kts
09-Aug-18 20:46 38.352212 -121.537708 352 27920ft 505kts
09-Aug-18 20:47 38.487580 -121.549133 14 27909ft 504kts
09-Aug-18 20:48 38.573564 -121.460029 63 27909ft 503kts
09-Aug-18 20:49 38.585734 -121.259032 91 27913ft 503kts
09-Aug-18 20:50 38.582528 -121.110804 94 27960ft 503kts
09-Aug-18 20:51 38.585632 -120.905675 73 28108ft 499kts
09-Aug-18 20:52 38.615080 -120.763273 75 28102ft 501kts
09-Aug-18 20:53 38.655684 -120.566171 74 27775ft 468kts
09-Aug-18 20:54 38.682471 -120.436241 74 25903ft 433kts
09-Aug-18 20:55 38.710244 -120.301621 75 24152ft 407kts
09-Aug-18 20:56 38.738546 -120.164537 75 22299ft 396kts
09-Aug-18 20:57 38.766080 -120.031271 75 20474ft 386kts
09-Aug-18 20:58 38.792431 -119.903835 75 18729ft 376kts
09-Aug-18 20:59 38.818501 -119.777317 74 17027ft 367kts
09-Aug-18 21:00 38.843970 -119.654504 74 15378ft 358kts
09-Aug-18 21:01 38.915954 -119.587810 352 13626ft 349kts
09-Aug-18 21:02 38.990728 -119.658077 315 11748ft 329kts
09-Aug-18 21:03 39.050313 -119.734321 315 11014ft 285kts
09-Aug-18 21:04 39.111864 -119.772895 350 11012ft 244kts
09-Aug-18 21:05 39.176897 -119.773492 5 10533ft 238kts
09-Aug-18 21:06 39.240392 -119.769576 3 10058ft 233kts
09-Aug-18 21:07 39.304221 -119.768989 350 8875ft 218kts
09-Aug-18 21:08 39.357515 -119.769710 354 7703ft 158kts
09-Aug-18 21:09 39.396238 -119.768340 354 6491ft 129kts
09-Aug-18 21:10 39.433006 -119.769103 351 5666ft 136kts
09-Aug-18 21:11 39.469838 -119.769293 352 4808ft 127kts
09-Aug-18 21:12 39.498402 -119.769249 359 4420ft 38kts
09-Aug-18 21:13 39.503486 -119.770317 300 4420ft 0kts
09-Aug-18 21:14 39.504599 -119.771530 358 4420ft 13kts
09-Aug-18 21:15 39.508024 -119.772446 266 4420ft 9kts
09-Aug-18 21:16 39.507418 -119.772937 182 4420ft 0kts

Navigation Log

Ident Type
Flight plan parsing failed, navigation log unavailable